sensor_id;sensor_type;location;lat;lon;timestamp;temperature;humidity
45207;DHT22;30950;53.086;21.576;2023-05-10T00:01:57;8.00;58.90
45207;DHT22;30950;53.086;21.576;2023-05-10T00:04:25;7.90;59.00
45207;DHT22;30950;53.086;21.576;2023-05-10T00:06:54;7.90;59.20
45207;DHT22;30950;53.086;21.576;2023-05-10T00:09:21;7.80;59.30
45207;DHT22;30950;53.086;21.576;2023-05-10T00:11:48;7.80;59.40
45207;DHT22;30950;53.086;21.576;2023-05-10T00:14:16;7.70;59.50
45207;DHT22;30950;53.086;21.576;2023-05-10T00:16:44;7.70;59.60
45207;DHT22;30950;53.086;21.576;2023-05-10T00:19:11;7.70;59.90
45207;DHT22;30950;53.086;21.576;2023-05-10T00:21:38;7.70;59.90
45207;DHT22;30950;53.086;21.576;2023-05-10T00:24:05;7.60;60.00
45207;DHT22;30950;53.086;21.576;2023-05-10T00:26:33;7.60;60.20
45207;DHT22;30950;53.086;21.576;2023-05-10T00:29:00;7.50;60.20
45207;DHT22;30950;53.086;21.576;2023-05-10T00:31:27;7.50;60.30
45207;DHT22;30950;53.086;21.576;2023-05-10T00:33:56;7.40;60.50
45207;DHT22;30950;53.086;21.576;2023-05-10T00:36:24;7.40;60.50
45207;DHT22;30950;53.086;21.576;2023-05-10T00:38:51;7.40;60.70
45207;DHT22;30950;53.086;21.576;2023-05-10T00:41:18;7.30;60.70
45207;DHT22;30950;53.086;21.576;2023-05-10T00:43:46;7.30;61.00
45207;DHT22;30950;53.086;21.576;2023-05-10T00:46:15;7.30;61.00
45207;DHT22;30950;53.086;21.576;2023-05-10T00:48:43;7.30;61.20
45207;DHT22;30950;53.086;21.576;2023-05-10T00:51:11;7.20;61.30
45207;DHT22;30950;53.086;21.576;2023-05-10T00:53:39;7.20;61.50
45207;DHT22;30950;53.086;21.576;2023-05-10T00:56:06;7.20;61.70
45207;DHT22;30950;53.086;21.576;2023-05-10T00:58:34;7.10;61.80
45207;DHT22;30950;53.086;21.576;2023-05-10T01:01:01;7.10;61.80
45207;DHT22;30950;53.086;21.576;2023-05-10T01:03:29;7.10;61.90
45207;DHT22;30950;53.086;21.576;2023-05-10T01:05:56;7.10;62.10
45207;DHT22;30950;53.086;21.576;2023-05-10T01:08:25;7.10;62.10
45207;DHT22;30950;53.086;21.576;2023-05-10T01:10:52;7.00;62.20
45207;DHT22;30950;53.086;21.576;2023-05-10T01:13:32;7.00;62.30
45207;DHT22;30950;53.086;21.576;2023-05-10T01:16:00;7.00;62.60
45207;DHT22;30950;53.086;21.576;2023-05-10T01:18:30;6.90;62.50
45207;DHT22;30950;53.086;21.576;2023-05-10T01:32:21;6.80;63.30
45207;DHT22;30950;53.086;21.576;2023-05-10T01:35:13;6.80;63.40
45207;DHT22;30950;53.086;21.576;2023-05-10T01:40:30;6.70;63.50
45207;DHT22;30950;53.086;21.576;2023-05-10T01:43:05;6.70;63.60
45207;DHT22;30950;53.086;21.576;2023-05-10T01:45:43;6.70;63.70
45207;DHT22;30950;53.086;21.576;2023-05-10T01:48:14;6.70;63.90
45207;DHT22;30950;53.086;21.576;2023-05-10T01:50:45;6.70;64.10
45207;DHT22;30950;53.086;21.576;2023-05-10T01:53:17;6.60;64.10
45207;DHT22;30950;53.086;21.576;2023-05-10T01:55:49;6.60;64.40
45207;DHT22;30950;53.086;21.576;2023-05-10T01:58:28;6.60;64.50
45207;DHT22;30950;53.086;21.576;2023-05-10T02:00:58;6.60;64.70
45207;DHT22;30950;53.086;21.576;2023-05-10T02:03:28;6.50;64.70
45207;DHT22;30950;53.086;21.576;2023-05-10T02:05:57;6.50;64.90
45207;DHT22;30950;53.086;21.576;2023-05-10T02:08:26;6.40;65.00
45207;DHT22;30950;53.086;21.576;2023-05-10T02:10:55;6.40;65.10
45207;DHT22;30950;53.086;21.576;2023-05-10T02:13:25;6.30;65.20
45207;DHT22;30950;53.086;21.576;2023-05-10T02:15:54;6.30;65.40
45207;DHT22;30950;53.086;21.576;2023-05-10T02:18:22;6.20;65.50
45207;DHT22;30950;53.086;21.576;2023-05-10T02:20:52;6.20;65.60
45207;DHT22;30950;53.086;21.576;2023-05-10T02:23:21;6.20;65.90
45207;DHT22;30950;53.086;21.576;2023-05-10T02:25:50;6.10;66.00
45207;DHT22;30950;53.086;21.576;2023-05-10T02:28:22;6.10;66.20
45207;DHT22;30950;53.086;21.576;2023-05-10T02:30:51;6.10;66.40
45207;DHT22;30950;53.086;21.576;2023-05-10T02:33:20;6.00;66.50
45207;DHT22;30950;53.086;21.576;2023-05-10T02:35:50;6.00;66.80
45207;DHT22;30950;53.086;21.576;2023-05-10T02:38:20;6.00;67.10
45207;DHT22;30950;53.086;21.576;2023-05-10T02:40:48;6.00;67.60
45207;DHT22;30950;53.086;21.576;2023-05-10T02:43:17;6.00;67.70
45207;DHT22;30950;53.086;21.576;2023-05-10T02:45:47;6.00;67.90
45207;DHT22;30950;53.086;21.576;2023-05-10T02:48:15;5.90;68.10
45207;DHT22;30950;53.086;21.576;2023-05-10T02:50:44;5.90;68.20
45207;DHT22;30950;53.086;21.576;2023-05-10T02:53:16;6.00;68.40
45207;DHT22;30950;53.086;21.576;2023-05-10T02:55:50;6.00;68.70
45207;DHT22;30950;53.086;21.576;2023-05-10T02:58:18;6.00;69.00
45207;DHT22;30950;53.086;21.576;2023-05-10T03:00:49;5.90;69.20
45207;DHT22;30950;53.086;21.576;2023-05-10T03:03:16;6.00;69.80
45207;DHT22;30950;53.086;21.576;2023-05-10T03:05:43;5.90;70.20
45207;DHT22;30950;53.086;21.576;2023-05-10T03:08:11;5.90;70.70
45207;DHT22;30950;53.086;21.576;2023-05-10T03:10:50;6.00;71.00
45207;DHT22;30950;53.086;21.576;2023-05-10T03:13:42;6.00;71.50
45207;DHT22;30950;53.086;21.576;2023-05-10T03:16:22;6.00;71.70
45207;DHT22;30950;53.086;21.576;2023-05-10T03:19:06;6.00;71.90
45207;DHT22;30950;53.086;21.576;2023-05-10T03:21:36;6.00;72.20
45207;DHT22;30950;53.086;21.576;2023-05-10T03:24:07;6.00;72.30
45207;DHT22;30950;53.086;21.576;2023-05-10T03:26:37;6.10;72.60
45207;DHT22;30950;53.086;21.576;2023-05-10T03:29:13;6.10;73.00
45207;DHT22;30950;53.086;21.576;2023-05-10T03:31:41;6.10;73.50
45207;DHT22;30950;53.086;21.576;2023-05-10T03:34:09;6.10;73.80
45207;DHT22;30950;53.086;21.576;2023-05-10T03:36:36;6.10;75.20
45207;DHT22;30950;53.086;21.576;2023-05-10T03:39:03;6.20;74.80
45207;DHT22;30950;53.086;21.576;2023-05-10T03:41:31;6.20;75.60
45207;DHT22;30950;53.086;21.576;2023-05-10T03:43:58;6.20;75.50
45207;DHT22;30950;53.086;21.576;2023-05-10T03:46:25;6.30;75.70
45207;DHT22;30950;53.086;21.576;2023-05-10T03:48:53;6.30;76.10
45207;DHT22;30950;53.086;21.576;2023-05-10T03:51:20;6.40;76.50
45207;DHT22;30950;53.086;21.576;2023-05-10T03:53:48;6.40;77.30
45207;DHT22;30950;53.086;21.576;2023-05-10T03:56:15;6.50;77.60
45207;DHT22;30950;53.086;21.576;2023-05-10T03:58:42;6.50;78.40
45207;DHT22;30950;53.086;21.576;2023-05-10T04:01:11;6.60;78.30
45207;DHT22;30950;53.086;21.576;2023-05-10T04:03:39;6.70;78.20
45207;DHT22;30950;53.086;21.576;2023-05-10T04:06:06;6.80;78.20
45207;DHT22;30950;53.086;21.576;2023-05-10T04:08:36;6.80;78.30
45207;DHT22;30950;53.086;21.576;2023-05-10T04:11:11;6.90;78.30
45207;DHT22;30950;53.086;21.576;2023-05-10T04:13:38;6.90;78.90
45207;DHT22;30950;53.086;21.576;2023-05-10T04:16:06;7.00;78.70
45207;DHT22;30950;53.086;21.576;2023-05-10T04:18:33;7.20;78.70
45207;DHT22;30950;53.086;21.576;2023-05-10T04:21:00;7.20;78.90
45207;DHT22;30950;53.086;21.576;2023-05-10T04:23:28;7.20;78.40
45207;DHT22;30950;53.086;21.576;2023-05-10T04:26:01;7.30;78.90
45207;DHT22;30950;53.086;21.576;2023-05-10T04:28:29;7.50;78.80
45207;DHT22;30950;53.086;21.576;2023-05-10T04:31:05;7.50;78.10
45207;DHT22;30950;53.086;21.576;2023-05-10T04:33:33;7.60;78.10
45207;DHT22;30950;53.086;21.576;2023-05-10T04:36:01;7.60;78.00
45207;DHT22;30950;53.086;21.576;2023-05-10T04:38:29;7.70;77.70
45207;DHT22;30950;53.086;21.576;2023-05-10T04:41:10;7.80;78.00
45207;DHT22;30950;53.086;21.576;2023-05-10T04:43:38;7.90;78.30
45207;DHT22;30950;53.086;21.576;2023-05-10T04:46:05;8.00;77.90
45207;DHT22;30950;53.086;21.576;2023-05-10T04:48:34;8.00;77.50
45207;DHT22;30950;53.086;21.576;2023-05-10T04:51:01;8.10;77.60
45207;DHT22;30950;53.086;21.576;2023-05-10T04:53:30;8.20;77.20
45207;DHT22;30950;53.086;21.576;2023-05-10T04:55:58;8.30;76.80
45207;DHT22;30950;53.086;21.576;2023-05-10T04:58:25;8.40;75.80
45207;DHT22;30950;53.086;21.576;2023-05-10T05:00:52;8.50;75.20
45207;DHT22;30950;53.086;21.576;2023-05-10T05:03:20;8.70;74.70
45207;DHT22;30950;53.086;21.576;2023-05-10T05:05:50;8.80;74.30
45207;DHT22;30950;53.086;21.576;2023-05-10T05:08:18;8.90;73.60
45207;DHT22;30950;53.086;21.576;2023-05-10T05:10:45;9.10;72.80
45207;DHT22;30950;53.086;21.576;2023-05-10T05:13:12;9.20;72.40
45207;DHT22;30950;53.086;21.576;2023-05-10T05:15:40;9.40;71.50
45207;DHT22;30950;53.086;21.576;2023-05-10T05:18:07;9.50;70.90
45207;DHT22;30950;53.086;21.576;2023-05-10T05:20:34;9.60;70.50
45207;DHT22;30950;53.086;21.576;2023-05-10T05:23:02;9.70;69.60
45207;DHT22;30950;53.086;21.576;2023-05-10T05:25:29;9.80;69.00
45207;DHT22;30950;53.086;21.576;2023-05-10T05:27:56;10.00;69.00
45207;DHT22;30950;53.086;21.576;2023-05-10T05:30:23;10.10;68.30
45207;DHT22;30950;53.086;21.576;2023-05-10T05:32:51;10.20;67.70
45207;DHT22;30950;53.086;21.576;2023-05-10T05:35:19;10.30;66.80
45207;DHT22;30950;53.086;21.576;2023-05-10T05:37:46;10.40;66.40
45207;DHT22;30950;53.086;21.576;2023-05-10T05:40:14;10.50;66.00
45207;DHT22;30950;53.086;21.576;2023-05-10T05:42:41;10.60;65.50
45207;DHT22;30950;53.086;21.576;2023-05-10T05:45:09;10.50;65.60
45207;DHT22;30950;53.086;21.576;2023-05-10T05:47:40;10.90;65.00
45207;DHT22;30950;53.086;21.576;2023-05-10T05:50:08;10.90;65.20
45207;DHT22;30950;53.086;21.576;2023-05-10T05:52:35;11.10;64.50
45207;DHT22;30950;53.086;21.576;2023-05-10T05:55:03;11.30;64.30
45207;DHT22;30950;53.086;21.576;2023-05-10T05:57:30;11.30;63.90
45207;DHT22;30950;53.086;21.576;2023-05-10T05:59:58;11.70;63.70
45207;DHT22;30950;53.086;21.576;2023-05-10T06:02:25;11.60;63.50
45207;DHT22;30950;53.086;21.576;2023-05-10T06:04:52;11.70;62.90
45207;DHT22;30950;53.086;21.576;2023-05-10T06:07:20;11.80;63.20
45207;DHT22;30950;53.086;21.576;2023-05-10T06:09:47;11.80;63.10
45207;DHT22;30950;53.086;21.576;2023-05-10T06:12:15;11.90;62.90
45207;DHT22;30950;53.086;21.576;2023-05-10T06:14:42;12.00;62.50
45207;DHT22;30950;53.086;21.576;2023-05-10T06:17:09;12.20;61.40
45207;DHT22;30950;53.086;21.576;2023-05-10T06:19:36;12.30;61.10
45207;DHT22;30950;53.086;21.576;2023-05-10T06:22:04;12.40;60.30
45207;DHT22;30950;53.086;21.576;2023-05-10T06:24:31;12.50;58.40
45207;DHT22;30950;53.086;21.576;2023-05-10T06:26:58;12.70;58.80
45207;DHT22;30950;53.086;21.576;2023-05-10T06:29:27;12.80;58.20
45207;DHT22;30950;53.086;21.576;2023-05-10T06:31:54;12.90;57.70
45207;DHT22;30950;53.086;21.576;2023-05-10T06:34:21;13.00;56.10
45207;DHT22;30950;53.086;21.576;2023-05-10T06:36:49;13.10;55.00
45207;DHT22;30950;53.086;21.576;2023-05-10T06:39:16;13.20;54.50
45207;DHT22;30950;53.086;21.576;2023-05-10T06:41:43;13.30;54.30
45207;DHT22;30950;53.086;21.576;2023-05-10T06:44:10;13.40;53.70
45207;DHT22;30950;53.086;21.576;2023-05-10T06:46:38;13.50;53.10
45207;DHT22;30950;53.086;21.576;2023-05-10T06:49:05;13.60;52.90
45207;DHT22;30950;53.086;21.576;2023-05-10T06:51:33;13.70;53.10
45207;DHT22;30950;53.086;21.576;2023-05-10T06:54:00;13.80;52.30
45207;DHT22;30950;53.086;21.576;2023-05-10T06:56:28;13.90;52.30
45207;DHT22;30950;53.086;21.576;2023-05-10T06:58:55;14.00;52.20
45207;DHT22;30950;53.086;21.576;2023-05-10T07:01:23;14.10;51.40
45207;DHT22;30950;53.086;21.576;2023-05-10T07:03:50;14.10;50.90
45207;DHT22;30950;53.086;21.576;2023-05-10T07:06:17;14.20;50.40
45207;DHT22;30950;53.086;21.576;2023-05-10T07:08:59;14.30;50.60
45207;DHT22;30950;53.086;21.576;2023-05-10T07:11:27;14.40;50.20
45207;DHT22;30950;53.086;21.576;2023-05-10T07:13:54;14.40;50.50
45207;DHT22;30950;53.086;21.576;2023-05-10T07:16:21;14.50;49.80
45207;DHT22;30950;53.086;21.576;2023-05-10T07:18:49;14.60;50.00
45207;DHT22;30950;53.086;21.576;2023-05-10T07:21:17;14.70;48.60
45207;DHT22;30950;53.086;21.576;2023-05-10T07:23:44;14.80;48.80
45207;DHT22;30950;53.086;21.576;2023-05-10T07:26:12;14.80;48.80
45207;DHT22;30950;53.086;21.576;2023-05-10T07:28:39;14.90;48.60
45207;DHT22;30950;53.086;21.576;2023-05-10T07:31:06;15.00;48.20
45207;DHT22;30950;53.086;21.576;2023-05-10T07:33:33;15.00;47.70
45207;DHT22;30950;53.086;21.576;2023-05-10T07:36:01;15.10;47.00
45207;DHT22;30950;53.086;21.576;2023-05-10T07:38:28;15.10;46.80
45207;DHT22;30950;53.086;21.576;2023-05-10T07:40:55;15.20;46.40
45207;DHT22;30950;53.086;21.576;2023-05-10T07:43:22;15.10;45.10
45207;DHT22;30950;53.086;21.576;2023-05-10T07:45:50;15.20;46.20
45207;DHT22;30950;53.086;21.576;2023-05-10T07:48:20;15.20;46.00
45207;DHT22;30950;53.086;21.576;2023-05-10T07:50:48;15.40;46.40
45207;DHT22;30950;53.086;21.576;2023-05-10T07:53:15;15.40;45.40
45207;DHT22;30950;53.086;21.576;2023-05-10T07:55:42;15.50;45.10
45207;DHT22;30950;53.086;21.576;2023-05-10T07:58:09;15.50;44.30
45207;DHT22;30950;53.086;21.576;2023-05-10T08:00:36;15.60;44.10
45207;DHT22;30950;53.086;21.576;2023-05-10T08:03:06;15.60;43.50
45207;DHT22;30950;53.086;21.576;2023-05-10T08:05:34;15.60;43.20
45207;DHT22;30950;53.086;21.576;2023-05-10T08:08:01;15.60;42.60
45207;DHT22;30950;53.086;21.576;2023-05-10T08:10:29;15.70;42.40
45207;DHT22;30950;53.086;21.576;2023-05-10T08:12:56;15.70;42.50
45207;DHT22;30950;53.086;21.576;2023-05-10T08:15:25;15.80;42.40
45207;DHT22;30950;53.086;21.576;2023-05-10T08:17:52;15.80;41.50
45207;DHT22;30950;53.086;21.576;2023-05-10T08:20:20;15.80;41.60
45207;DHT22;30950;53.086;21.576;2023-05-10T08:22:47;15.80;41.70
45207;DHT22;30950;53.086;21.576;2023-05-10T08:25:17;15.90;42.20
45207;DHT22;30950;53.086;21.576;2023-05-10T08:27:45;15.90;41.30
45207;DHT22;30950;53.086;21.576;2023-05-10T08:30:12;16.00;40.60
45207;DHT22;30950;53.086;21.576;2023-05-10T08:32:40;16.00;41.10
45207;DHT22;30950;53.086;21.576;2023-05-10T08:35:07;16.00;40.10
45207;DHT22;30950;53.086;21.576;2023-05-10T08:37:34;16.10;41.20
45207;DHT22;30950;53.086;21.576;2023-05-10T08:40:02;16.10;40.70
45207;DHT22;30950;53.086;21.576;2023-05-10T08:42:34;16.20;40.50
45207;DHT22;30950;53.086;21.576;2023-05-10T08:45:03;16.20;40.40
45207;DHT22;30950;53.086;21.576;2023-05-10T08:47:31;16.20;40.50
45207;DHT22;30950;53.086;21.576;2023-05-10T08:49:59;16.30;40.50
45207;DHT22;30950;53.086;21.576;2023-05-10T08:52:28;16.40;40.60
45207;DHT22;30950;53.086;21.576;2023-05-10T08:54:57;16.40;40.30
45207;DHT22;30950;53.086;21.576;2023-05-10T08:57:25;16.40;40.60
45207;DHT22;30950;53.086;21.576;2023-05-10T08:59:52;16.40;39.90
45207;DHT22;30950;53.086;21.576;2023-05-10T09:02:20;16.50;40.40
45207;DHT22;30950;53.086;21.576;2023-05-10T09:04:48;16.60;40.50
45207;DHT22;30950;53.086;21.576;2023-05-10T09:07:16;16.60;40.60
45207;DHT22;30950;53.086;21.576;2023-05-10T09:09:45;16.70;40.10
45207;DHT22;30950;53.086;21.576;2023-05-10T09:12:13;16.70;39.00
45207;DHT22;30950;53.086;21.576;2023-05-10T09:14:44;16.70;39.40
45207;DHT22;30950;53.086;21.576;2023-05-10T09:17:11;16.70;39.10
45207;DHT22;30950;53.086;21.576;2023-05-10T09:19:39;16.80;39.40
45207;DHT22;30950;53.086;21.576;2023-05-10T09:22:06;16.80;39.40
45207;DHT22;30950;53.086;21.576;2023-05-10T09:24:34;16.90;38.80
45207;DHT22;30950;53.086;21.576;2023-05-10T09:27:01;16.90;39.10
45207;DHT22;30950;53.086;21.576;2023-05-10T09:29:42;17.00;38.90
45207;DHT22;30950;53.086;21.576;2023-05-10T09:32:09;17.00;38.20
45207;DHT22;30950;53.086;21.576;2023-05-10T09:34:36;17.10;39.00
45207;DHT22;30950;53.086;21.576;2023-05-10T09:37:06;17.10;38.70
45207;DHT22;30950;53.086;21.576;2023-05-10T09:39:37;17.10;38.30
45207;DHT22;30950;53.086;21.576;2023-05-10T09:42:07;17.10;37.60
45207;DHT22;30950;53.086;21.576;2023-05-10T09:44:35;17.10;38.00
45207;DHT22;30950;53.086;21.576;2023-05-10T09:47:02;17.10;38.00
45207;DHT22;30950;53.086;21.576;2023-05-10T09:49:30;17.10;38.00
45207;DHT22;30950;53.086;21.576;2023-05-10T09:52:07;17.20;38.90
45207;DHT22;30950;53.086;21.576;2023-05-10T09:54:35;17.30;38.50
45207;DHT22;30950;53.086;21.576;2023-05-10T09:57:02;17.40;38.70
45207;DHT22;30950;53.086;21.576;2023-05-10T09:59:32;17.40;38.90
45207;DHT22;30950;53.086;21.576;2023-05-10T10:01:59;17.50;38.70
45207;DHT22;30950;53.086;21.576;2023-05-10T10:04:28;17.60;38.30
45207;DHT22;30950;53.086;21.576;2023-05-10T10:07:00;17.60;38.50
45207;DHT22;30950;53.086;21.576;2023-05-10T10:09:28;17.70;38.20
45207;DHT22;30950;53.086;21.576;2023-05-10T10:11:55;17.70;38.10
45207;DHT22;30950;53.086;21.576;2023-05-10T10:14:23;17.70;37.00
45207;DHT22;30950;53.086;21.576;2023-05-10T10:16:51;17.70;37.60
45207;DHT22;30950;53.086;21.576;2023-05-10T10:19:34;17.80;38.20
45207;DHT22;30950;53.086;21.576;2023-05-10T10:22:03;17.90;37.80
45207;DHT22;30950;53.086;21.576;2023-05-10T10:24:30;18.20;38.80
45207;DHT22;30950;53.086;21.576;2023-05-10T10:27:05;18.70;38.90
45207;DHT22;30950;53.086;21.576;2023-05-10T10:35:46;20.60;35.70
45207;DHT22;30950;53.086;21.576;2023-05-10T10:38:14;21.10;35.10
45207;DHT22;30950;53.086;21.576;2023-05-10T10:40:41;21.40;35.00
45207;DHT22;30950;53.086;21.576;2023-05-10T10:46:12;21.50;33.40
45207;DHT22;30950;53.086;21.576;2023-05-10T10:48:41;21.40;33.80
45207;DHT22;30950;53.086;21.576;2023-05-10T10:51:09;21.00;32.80
45207;DHT22;30950;53.086;21.576;2023-05-10T10:53:40;20.60;33.70
45207;DHT22;30950;53.086;21.576;2023-05-10T10:56:12;20.20;34.00
45207;DHT22;30950;53.086;21.576;2023-05-10T10:58:41;19.90;34.00
45207;DHT22;30950;53.086;21.576;2023-05-10T11:01:18;19.70;35.00
45207;DHT22;30950;53.086;21.576;2023-05-10T11:06:42;19.40;34.70
45207;DHT22;30950;53.086;21.576;2023-05-10T11:09:11;19.20;35.40
45207;DHT22;30950;53.086;21.576;2023-05-10T11:11:50;19.10;35.90
45207;DHT22;30950;53.086;21.576;2023-05-10T11:14:21;19.00;35.80
45207;DHT22;30950;53.086;21.576;2023-05-10T11:16:49;19.00;35.50
45207;DHT22;30950;53.086;21.576;2023-05-10T11:19:17;18.90;35.40
45207;DHT22;30950;53.086;21.576;2023-05-10T11:24:18;18.80;35.80
45207;DHT22;30950;53.086;21.576;2023-05-10T11:26:51;18.90;36.30
45207;DHT22;30950;53.086;21.576;2023-05-10T11:29:18;18.90;36.00
45207;DHT22;30950;53.086;21.576;2023-05-10T11:31:47;18.90;35.60
45207;DHT22;30950;53.086;21.576;2023-05-10T11:34:31;18.90;35.30
45207;DHT22;30950;53.086;21.576;2023-05-10T11:37:01;18.90;35.90
45207;DHT22;30950;53.086;21.576;2023-05-10T11:39:30;19.00;35.40
45207;DHT22;30950;53.086;21.576;2023-05-10T11:41:58;19.00;35.60
45207;DHT22;30950;53.086;21.576;2023-05-10T11:44:34;19.00;35.60
45207;DHT22;30950;53.086;21.576;2023-05-10T11:47:02;19.10;35.40
45207;DHT22;30950;53.086;21.576;2023-05-10T11:49:29;19.00;35.20
45207;DHT22;30950;53.086;21.576;2023-05-10T11:52:06;19.00;36.10
45207;DHT22;30950;53.086;21.576;2023-05-10T11:54:34;18.90;36.00
45207;DHT22;30950;53.086;21.576;2023-05-10T11:57:02;19.00;36.20
45207;DHT22;30950;53.086;21.576;2023-05-10T11:59:30;19.00;35.20
45207;DHT22;30950;53.086;21.576;2023-05-10T12:01:57;19.00;35.40
45207;DHT22;30950;53.086;21.576;2023-05-10T12:04:25;19.00;35.20
45207;DHT22;30950;53.086;21.576;2023-05-10T12:06:52;19.00;35.70
45207;DHT22;30950;53.086;21.576;2023-05-10T12:09:20;19.10;35.60
45207;DHT22;30950;53.086;21.576;2023-05-10T12:12:07;19.20;35.90
45207;DHT22;30950;53.086;21.576;2023-05-10T12:14:36;19.20;35.40
45207;DHT22;30950;53.086;21.576;2023-05-10T12:17:03;19.30;35.40
45207;DHT22;30950;53.086;21.576;2023-05-10T12:19:37;19.40;35.00
45207;DHT22;30950;53.086;21.576;2023-05-10T12:22:06;19.50;34.60
45207;DHT22;30950;53.086;21.576;2023-05-10T12:24:36;19.60;35.40
45207;DHT22;30950;53.086;21.576;2023-05-10T12:27:05;19.70;35.30
45207;DHT22;30950;53.086;21.576;2023-05-10T12:29:52;19.80;35.40
45207;DHT22;30950;53.086;21.576;2023-05-10T12:32:21;19.90;35.70
45207;DHT22;30950;53.086;21.576;2023-05-10T12:35:04;20.20;36.10
45207;DHT22;30950;53.086;21.576;2023-05-10T12:37:31;20.80;36.20
45207;DHT22;30950;53.086;21.576;2023-05-10T12:40:02;21.40;36.20
45207;DHT22;30950;53.086;21.576;2023-05-10T12:42:32;22.10;35.00
45207;DHT22;30950;53.086;21.576;2023-05-10T12:44:59;22.80;34.40
45207;DHT22;30950;53.086;21.576;2023-05-10T12:47:26;23.40;35.10
45207;DHT22;30950;53.086;21.576;2023-05-10T12:49:53;23.90;33.40
45207;DHT22;30950;53.086;21.576;2023-05-10T12:52:20;24.50;33.20
45207;DHT22;30950;53.086;21.576;2023-05-10T12:54:48;24.80;31.80
45207;DHT22;30950;53.086;21.576;2023-05-10T12:57:16;25.00;31.70
45207;DHT22;30950;53.086;21.576;2023-05-10T12:59:43;25.30;32.10
45207;DHT22;30950;53.086;21.576;2023-05-10T13:02:10;25.60;31.20
45207;DHT22;30950;53.086;21.576;2023-05-10T13:04:38;25.70;31.50
45207;DHT22;30950;53.086;21.576;2023-05-10T13:07:07;25.80;31.60
45207;DHT22;30950;53.086;21.576;2023-05-10T13:09:34;26.00;30.80
45207;DHT22;30950;53.086;21.576;2023-05-10T13:12:01;26.00;30.90
45207;DHT22;30950;53.086;21.576;2023-05-10T13:14:29;26.10;31.20
45207;DHT22;30950;53.086;21.576;2023-05-10T13:16:56;26.20;30.60
45207;DHT22;30950;53.086;21.576;2023-05-10T13:19:25;26.30;30.90
45207;DHT22;30950;53.086;21.576;2023-05-10T13:21:53;26.50;30.50
45207;DHT22;30950;53.086;21.576;2023-05-10T13:24:20;26.50;30.40
45207;DHT22;30950;53.086;21.576;2023-05-10T13:26:48;26.70;31.00
45207;DHT22;30950;53.086;21.576;2023-05-10T13:29:16;26.90;30.20
45207;DHT22;30950;53.086;21.576;2023-05-10T13:31:45;26.90;30.30
45207;DHT22;30950;53.086;21.576;2023-05-10T13:34:13;27.00;30.00
45207;DHT22;30950;53.086;21.576;2023-05-10T13:36:40;26.90;29.70
45207;DHT22;30950;53.086;21.576;2023-05-10T13:39:07;26.90;29.90
45207;DHT22;30950;53.086;21.576;2023-05-10T13:41:35;26.90;29.90
45207;DHT22;30950;53.086;21.576;2023-05-10T13:44:04;27.00;30.10
45207;DHT22;30950;53.086;21.576;2023-05-10T13:46:31;27.10;30.20
45207;DHT22;30950;53.086;21.576;2023-05-10T13:48:58;27.30;30.20
45207;DHT22;30950;53.086;21.576;2023-05-10T13:51:26;27.10;29.70
45207;DHT22;30950;53.086;21.576;2023-05-10T13:53:53;27.20;30.00
45207;DHT22;30950;53.086;21.576;2023-05-10T13:56:20;27.30;29.90
45207;DHT22;30950;53.086;21.576;2023-05-10T13:58:48;27.30;29.80
45207;DHT22;30950;53.086;21.576;2023-05-10T14:01:15;27.20;29.80
45207;DHT22;30950;53.086;21.576;2023-05-10T14:03:42;27.00;28.90
45207;DHT22;30950;53.086;21.576;2023-05-10T14:06:09;26.50;29.10
45207;DHT22;30950;53.086;21.576;2023-05-10T14:08:37;26.20;29.30
45207;DHT22;30950;53.086;21.576;2023-05-10T14:11:04;25.60;29.30
45207;DHT22;30950;53.086;21.576;2023-05-10T14:13:32;25.10;29.90
45207;DHT22;30950;53.086;21.576;2023-05-10T14:15:59;24.90;29.90
45207;DHT22;30950;53.086;21.576;2023-05-10T14:18:28;24.80;30.00
45207;DHT22;30950;53.086;21.576;2023-05-10T14:20:55;24.70;30.30
45207;DHT22;30950;53.086;21.576;2023-05-10T14:23:23;24.70;30.30
45207;DHT22;30950;53.086;21.576;2023-05-10T14:25:55;24.60;30.30
45207;DHT22;30950;53.086;21.576;2023-05-10T14:28:23;24.40;30.30
45207;DHT22;30950;53.086;21.576;2023-05-10T14:30:51;24.30;30.30
45207;DHT22;30950;53.086;21.576;2023-05-10T14:33:19;24.20;30.30
45207;DHT22;30950;53.086;21.576;2023-05-10T14:35:47;24.20;30.70
45207;DHT22;30950;53.086;21.576;2023-05-10T14:38:15;24.30;30.80
45207;DHT22;30950;53.086;21.576;2023-05-10T14:40:42;24.40;30.60
45207;DHT22;30950;53.086;21.576;2023-05-10T14:43:10;24.50;30.70
45207;DHT22;30950;53.086;21.576;2023-05-10T14:45:37;24.60;31.00
45207;DHT22;30950;53.086;21.576;2023-05-10T14:48:04;24.80;30.60
45207;DHT22;30950;53.086;21.576;2023-05-10T14:50:32;24.90;30.80
45207;DHT22;30950;53.086;21.576;2023-05-10T14:53:03;25.10;30.40
45207;DHT22;30950;53.086;21.576;2023-05-10T14:55:31;25.30;30.70
45207;DHT22;30950;53.086;21.576;2023-05-10T14:57:58;25.60;31.10
45207;DHT22;30950;53.086;21.576;2023-05-10T15:00:26;25.80;30.90
45207;DHT22;30950;53.086;21.576;2023-05-10T15:02:55;26.10;30.10
45207;DHT22;30950;53.086;21.576;2023-05-10T15:05:23;26.10;30.00
45207;DHT22;30950;53.086;21.576;2023-05-10T15:07:51;26.10;29.80
45207;DHT22;30950;53.086;21.576;2023-05-10T15:10:18;26.10;30.00
45207;DHT22;30950;53.086;21.576;2023-05-10T15:12:45;26.10;29.80
45207;DHT22;30950;53.086;21.576;2023-05-10T15:15:13;25.80;29.90
45207;DHT22;30950;53.086;21.576;2023-05-10T15:17:40;25.60;29.60
45207;DHT22;30950;53.086;21.576;2023-05-10T15:20:08;25.40;30.00
45207;DHT22;30950;53.086;21.576;2023-05-10T15:22:35;25.20;30.20
45207;DHT22;30950;53.086;21.576;2023-05-10T15:25:02;25.10;30.50
45207;DHT22;30950;53.086;21.576;2023-05-10T15:27:30;25.10;30.60
45207;DHT22;30950;53.086;21.576;2023-05-10T15:29:57;24.90;30.20
45207;DHT22;30950;53.086;21.576;2023-05-10T15:32:26;24.80;30.30
45207;DHT22;30950;53.086;21.576;2023-05-10T15:34:53;24.60;30.60
45207;DHT22;30950;53.086;21.576;2023-05-10T15:37:21;24.50;30.70
45207;DHT22;30950;53.086;21.576;2023-05-10T15:39:49;24.40;30.90
45207;DHT22;30950;53.086;21.576;2023-05-10T15:42:17;24.30;31.10
45207;DHT22;30950;53.086;21.576;2023-05-10T15:44:44;24.30;31.40
45207;DHT22;30950;53.086;21.576;2023-05-10T15:47:12;24.20;31.10
45207;DHT22;30950;53.086;21.576;2023-05-10T15:49:39;24.10;31.30
45207;DHT22;30950;53.086;21.576;2023-05-10T15:52:06;23.90;31.00
45207;DHT22;30950;53.086;21.576;2023-05-10T15:54:33;23.70;31.20
45207;DHT22;30950;53.086;21.576;2023-05-10T15:57:00;23.50;31.50
45207;DHT22;30950;53.086;21.576;2023-05-10T15:59:27;23.50;31.60